Epsom, New Hampshire
Current Conditions -  °F | °C
As of 8:51 PM on Saturday 22 Nov 2014 (Local Time) from KCON Reporting Station
Overcast Overcast  
Wind Chill: 33°   Ceiling: 3600
Heat Index: 38°   Visibility: 10mi
Dew Point: 11°   Wind: 7mph
Humidity: 33%   Direction: 190°S
Pressure: 30.01"   Gusts: NA
Location:  43.22°N, 71.33°W
Report Text: KCON 230151Z AUTO 19006KT 10SM OVC036 03/M12 A3001 RMK AO2 SLP167 T00331117
Loading
Personal Weather Stations






























Interactive Weather Map New forecast layout! Learn more

10-Day Weather Forecast

Advertisements
Track Severe Weather on mobile